sensor_id;sensor_type;location;lat;lon;timestamp;P1;durP1;ratioP1;P2;durP2;ratioP2
7883;SDS011;3987;51.458;7.238;2023-05-10T00:10:28;5.90;;;5.70;;
7883;SDS011;3987;51.458;7.238;2023-05-10T00:25:28;7.47;;;7.00;;
7883;SDS011;3987;51.458;7.238;2023-05-10T00:40:29;8.00;;;7.40;;
7883;SDS011;3987;51.458;7.238;2023-05-10T00:55:34;9.10;;;8.50;;
7883;SDS011;3987;51.458;7.238;2023-05-10T01:10:35;11.23;;;10.43;;
7883;SDS011;3987;51.458;7.238;2023-05-10T01:41:48;11.23;;;10.33;;
7883;SDS011;3987;51.458;7.238;2023-05-10T01:56:29;11.57;;;10.57;;
7883;SDS011;3987;51.458;7.238;2023-05-10T02:11:31;12.43;;;11.43;;
7883;SDS011;3987;51.458;7.238;2023-05-10T02:26:32;12.20;;;11.20;;
7883;SDS011;3987;51.458;7.238;2023-05-10T02:41:34;13.80;;;12.40;;
7883;SDS011;3987;51.458;7.238;2023-05-10T02:56:35;15.67;;;12.60;;
7883;SDS011;3987;51.458;7.238;2023-05-10T03:11:39;19.50;;;13.47;;
7883;SDS011;3987;51.458;7.238;2023-05-10T03:26:48;17.10;;;13.60;;
7883;SDS011;3987;51.458;7.238;2023-05-10T03:41:51;17.13;;;12.53;;
7883;SDS011;3987;51.458;7.238;2023-05-10T03:56:52;22.30;;;15.20;;
7883;SDS011;3987;51.458;7.238;2023-05-10T04:11:54;35.00;;;21.20;;
7883;SDS011;3987;51.458;7.238;2023-05-10T04:26:54;33.33;;;20.93;;
7883;SDS011;3987;51.458;7.238;2023-05-10T04:41:55;31.87;;;21.37;;
7883;SDS011;3987;51.458;7.238;2023-05-10T04:56:55;41.00;;;25.17;;
7883;SDS011;3987;51.458;7.238;2023-05-10T05:11:56;48.17;;;27.33;;
7883;SDS011;3987;51.458;7.238;2023-05-10T05:26:56;55.33;;;30.53;;
7883;SDS011;3987;51.458;7.238;2023-05-10T05:41:56;62.77;;;33.10;;
7883;SDS011;3987;51.458;7.238;2023-05-10T05:56:58;69.43;;;35.97;;
7883;SDS011;3987;51.458;7.238;2023-05-10T06:11:59;62.65;;;34.63;;
7883;SDS011;3987;51.458;7.238;2023-05-10T06:26:59;62.97;;;36.23;;
7883;SDS011;3987;51.458;7.238;2023-05-10T06:42:00;58.87;;;34.67;;
7883;SDS011;3987;51.458;7.238;2023-05-10T06:57:06;53.20;;;33.97;;
7883;SDS011;3987;51.458;7.238;2023-05-10T07:12:06;55.33;;;32.23;;
7883;SDS011;3987;51.458;7.238;2023-05-10T07:27:06;52.50;;;30.73;;
7883;SDS011;3987;51.458;7.238;2023-05-10T07:42:07;54.20;;;29.80;;
7883;SDS011;3987;51.458;7.238;2023-05-10T07:57:08;48.40;;;29.47;;
7883;SDS011;3987;51.458;7.238;2023-05-10T08:12:08;49.60;;;30.23;;
7883;SDS011;3987;51.458;7.238;2023-05-10T08:27:09;43.17;;;27.57;;
7883;SDS011;3987;51.458;7.238;2023-05-10T08:42:09;41.30;;;25.47;;
7883;SDS011;3987;51.458;7.238;2023-05-10T08:57:10;29.63;;;21.33;;
7883;SDS011;3987;51.458;7.238;2023-05-10T09:12:10;15.93;;;13.93;;
7883;SDS011;3987;51.458;7.238;2023-05-10T09:27:12;14.33;;;12.83;;
7883;SDS011;3987;51.458;7.238;2023-05-10T09:42:12;15.27;;;13.30;;
7883;SDS011;3987;51.458;7.238;2023-05-10T09:57:23;19.80;;;14.53;;
7883;SDS011;3987;51.458;7.238;2023-05-10T10:12:24;18.73;;;14.07;;
7883;SDS011;3987;51.458;7.238;2023-05-10T10:27:37;38.73;;;21.23;;
7883;SDS011;3987;51.458;7.238;2023-05-10T10:42:48;19.67;;;15.53;;
7883;SDS011;3987;51.458;7.238;2023-05-10T10:57:53;17.10;;;14.13;;
7883;SDS011;3987;51.458;7.238;2023-05-10T11:13:04;20.70;;;17.27;;
7883;SDS011;3987;51.458;7.238;2023-05-10T11:28:05;22.10;;;17.73;;
7883;SDS011;3987;51.458;7.238;2023-05-10T11:43:06;15.73;;;13.13;;
7883;SDS011;3987;51.458;7.238;2023-05-10T11:58:08;15.23;;;12.07;;
7883;SDS011;3987;51.458;7.238;2023-05-10T12:13:12;12.23;;;11.23;;
7883;SDS011;3987;51.458;7.238;2023-05-10T12:28:14;14.67;;;13.37;;
7883;SDS011;3987;51.458;7.238;2023-05-10T12:43:14;12.73;;;11.53;;
7883;SDS011;3987;51.458;7.238;2023-05-10T12:58:14;12.87;;;11.33;;
7883;SDS011;3987;51.458;7.238;2023-05-10T13:13:15;14.33;;;13.10;;
7883;SDS011;3987;51.458;7.238;2023-05-10T13:28:15;8.43;;;8.03;;
7883;SDS011;3987;51.458;7.238;2023-05-10T13:43:16;7.20;;;6.90;;
7883;SDS011;3987;51.458;7.238;2023-05-10T13:58:16;5.17;;;4.93;;
7883;SDS011;3987;51.458;7.238;2023-05-10T14:13:16;4.10;;;3.90;;
7883;SDS011;3987;51.458;7.238;2023-05-10T14:28:17;4.80;;;4.33;;
7883;SDS011;3987;51.458;7.238;2023-05-10T14:43:18;5.70;;;5.30;;
7883;SDS011;3987;51.458;7.238;2023-05-10T14:58:18;4.37;;;4.20;;
7883;SDS011;3987;51.458;7.238;2023-05-10T15:13:19;4.10;;;3.70;;
7883;SDS011;3987;51.458;7.238;2023-05-10T15:28:20;5.00;;;4.80;;
7883;SDS011;3987;51.458;7.238;2023-05-10T15:43:20;9.30;;;8.50;;
7883;SDS011;3987;51.458;7.238;2023-05-10T15:58:20;9.07;;;8.47;;
7883;SDS011;3987;51.458;7.238;2023-05-10T16:13:21;8.30;;;7.87;;
7883;SDS011;3987;51.458;7.238;2023-05-10T16:28:21;9.17;;;8.50;;
7883;SDS011;3987;51.458;7.238;2023-05-10T16:43:22;10.77;;;9.83;;
7883;SDS011;3987;51.458;7.238;2023-05-10T16:58:22;11.33;;;10.53;;
7883;SDS011;3987;51.458;7.238;2023-05-10T17:13:23;13.87;;;12.87;;
7883;SDS011;3987;51.458;7.238;2023-05-10T17:28:23;10.67;;;10.03;;
7883;SDS011;3987;51.458;7.238;2023-05-10T17:43:24;11.23;;;10.33;;
7883;SDS011;3987;51.458;7.238;2023-05-10T17:58:25;9.23;;;8.47;;
7883;SDS011;3987;51.458;7.238;2023-05-10T18:13:25;8.80;;;8.20;;
7883;SDS011;3987;51.458;7.238;2023-05-10T18:28:27;6.60;;;6.20;;
7883;SDS011;3987;51.458;7.238;2023-05-10T18:43:27;5.50;;;5.23;;
7883;SDS011;3987;51.458;7.238;2023-05-10T18:58:28;3.83;;;3.73;;
7883;SDS011;3987;51.458;7.238;2023-05-10T19:13:28;4.22;;;4.00;;
7883;SDS011;3987;51.458;7.238;2023-05-10T19:28:29;6.80;;;6.40;;
7883;SDS011;3987;51.458;7.238;2023-05-10T19:43:30;9.97;;;9.20;;
7883;SDS011;3987;51.458;7.238;2023-05-10T19:58:33;13.43;;;12.23;;
7883;SDS011;3987;51.458;7.238;2023-05-10T20:13:33;14.20;;;12.80;;
7883;SDS011;3987;51.458;7.238;2023-05-10T20:28:34;15.90;;;14.07;;
7883;SDS011;3987;51.458;7.238;2023-05-10T20:43:35;21.13;;;16.50;;
7883;SDS011;3987;51.458;7.238;2023-05-10T20:58:35;18.53;;;16.00;;
7883;SDS011;3987;51.458;7.238;2023-05-10T21:13:35;17.03;;;15.23;;
7883;SDS011;3987;51.458;7.238;2023-05-10T21:28:36;16.33;;;14.67;;
7883;SDS011;3987;51.458;7.238;2023-05-10T21:43:36;15.77;;;14.33;;
7883;SDS011;3987;51.458;7.238;2023-05-10T21:58:37;19.07;;;15.47;;
7883;SDS011;3987;51.458;7.238;2023-05-10T22:13:37;18.20;;;15.93;;
7883;SDS011;3987;51.458;7.238;2023-05-10T22:28:37;18.53;;;16.63;;
7883;SDS011;3987;51.458;7.238;2023-05-10T22:43:38;23.40;;;19.17;;
7883;SDS011;3987;51.458;7.238;2023-05-10T22:58:38;27.83;;;20.97;;
7883;SDS011;3987;51.458;7.238;2023-05-10T23:13:39;36.20;;;23.60;;
7883;SDS011;3987;51.458;7.238;2023-05-10T23:28:39;34.13;;;24.13;;
7883;SDS011;3987;51.458;7.238;2023-05-10T23:43:40;29.83;;;23.47;;
7883;SDS011;3987;51.458;7.238;2023-05-10T23:58:40;29.00;;;23.00;;
